Time;durP1;ratioP1;P1;durP2;ratioP2;P2;SDS_P1;SDS_P2;PMS_P1;PMS_P2;Temp;Humidity;BMP_temperature;BMP_pressure;BME280_temperature;BME280_humidity;BME280_pressure;Samples;Min_cycle;Max_cycle;Signal;HPM_P1;HPM_P2
2023/08/26 00:02:26;;;;;;;11.45;8.50;;;19.10;99.90;;;;;;4934195;29;20027;-82
2023/08/26 00:04:52;;;;;;;14.98;9.82;;;19.00;99.90;;;;;;4931368;29;20024;-81
2023/08/26 00:07:18;;;;;;;12.85;9.50;;;19.00;99.90;;;;;;4926421;29;20452;-83
2023/08/26 00:09:43;;;;;;;15.95;10.30;;;18.90;99.90;;;;;;4931267;29;20038;-82
2023/08/26 00:12:09;;;;;;;12.90;8.82;;;18.90;99.90;;;;;;4940724;29;20047;-81
2023/08/26 00:14:35;;;;;;;11.07;7.72;;;18.90;99.90;;;;;;4928521;29;20035;-82
2023/08/26 00:17:01;;;;;;;12.77;7.68;;;18.90;99.90;;;;;;4930569;29;20041;-79
2023/08/26 00:19:26;;;;;;;10.65;7.15;;;18.90;99.90;;;;;;4933312;29;20036;-80
2023/08/26 00:21:52;;;;;;;8.77;7.03;;;18.80;99.90;;;;;;4932171;29;20035;-81
2023/08/26 00:24:19;;;;;;;9.40;6.78;;;18.80;99.90;;;;;;4929391;29;20525;-82
2023/08/26 00:26:45;;;;;;;11.88;7.82;;;18.80;99.90;;;;;;4927617;29;20036;-82
2023/08/26 00:29:11;;;;;;;11.50;8.10;;;18.80;99.90;;;;;;4926627;29;20036;-82
2023/08/26 00:31:37;;;;;;;9.80;7.95;;;18.80;99.90;;;;;;4936963;29;20051;-82
2023/08/26 00:34:03;;;;;;;14.13;8.82;;;18.80;99.90;;;;;;4932305;29;20031;-82
2023/08/26 00:36:30;;;;;;;10.07;8.07;;;18.80;99.90;;;;;;4932930;29;20039;-82
2023/08/26 00:38:57;;;;;;;11.07;7.88;;;18.80;99.90;;;;;;4942105;29;20046;-82
2023/08/26 00:41:24;;;;;;;11.23;7.93;;;18.80;99.90;;;;;;4936167;28;20063;-81
2023/08/26 00:43:49;;;;;;;9.57;7.68;;;18.90;99.90;;;;;;4926730;29;20059;-81
2023/08/26 00:46:15;;;;;;;9.48;7.53;;;18.90;99.90;;;;;;4937278;29;20416;-80
2023/08/26 00:48:41;;;;;;;10.30;7.78;;;18.80;99.90;;;;;;4921862;29;20082;-80
2023/08/26 00:51:08;;;;;;;7.18;6.45;;;18.80;99.90;;;;;;4929877;29;20071;-80
2023/08/26 00:53:34;;;;;;;9.40;6.07;;;18.80;99.90;;;;;;4934516;29;20063;-80
2023/08/26 00:56:01;;;;;;;13.18;7.00;;;18.70;99.90;;;;;;4926755;29;20035;-82
2023/08/26 00:58:28;;;;;;;6.60;5.95;;;18.70;99.90;;;;;;4932743;29;20478;-82
2023/08/26 01:00:54;;;;;;;6.32;5.72;;;18.60;99.90;;;;;;4930302;29;20099;-80
2023/08/26 01:03:20;;;;;;;6.55;5.80;;;18.60;99.90;;;;;;4936578;29;20028;-80
2023/08/26 01:05:46;;;;;;;7.82;6.00;;;18.60;99.90;;;;;;4926992;29;20035;-80
2023/08/26 01:08:13;;;;;;;7.50;5.80;;;18.50;99.90;;;;;;4929360;29;20036;-81
2023/08/26 01:10:50;;;;;;;9.50;5.72;;;18.50;99.90;;;;;;4926635;29;20431;-81
2023/08/26 01:13:22;;;;;;;8.18;5.63;;;18.50;99.90;;;;;;4938083;28;20432;-82
2023/08/26 01:15:50;;;;;;;7.47;5.93;;;18.50;99.90;;;;;;4933957;28;20044;-79
2023/08/26 01:18:17;;;;;;;7.65;6.18;;;18.40;99.90;;;;;;4937644;29;20444;-79
2023/08/26 01:20:43;;;;;;;9.02;6.05;;;18.40;99.90;;;;;;4929621;29;20043;-82
2023/08/26 01:23:22;;;;;;;6.97;6.03;;;18.50;99.90;;;;;;4937228;29;20267;-80
2023/08/26 01:25:48;;;;;;;7.72;6.20;;;18.40;99.90;;;;;;4928499;29;20048;-79
2023/08/26 01:28:14;;;;;;;12.10;6.28;;;18.40;99.90;;;;;;4928347;29;20075;-80
2023/08/26 01:30:40;;;;;;;8.23;6.30;;;18.40;99.90;;;;;;4953364;28;20464;-79
2023/08/26 01:33:26;;;;;;;9.88;6.15;;;18.50;99.90;;;;;;4930189;29;20083;-80
2023/08/26 01:35:59;;;;;;;7.03;6.05;;;18.50;99.90;;;;;;4927395;29;20035;-78
2023/08/26 01:38:26;;;;;;;9.32;6.60;;;18.50;99.90;;;;;;4928705;29;20075;-80
2023/08/26 01:40:55;;;;;;;9.77;6.28;;;18.50;99.90;;;;;;4935592;29;20027;-78
2023/08/26 01:43:22;;;;;;;9.82;6.68;;;18.50;99.90;;;;;;4936969;28;20485;-82
2023/08/26 01:45:48;;;;;;;7.43;6.25;;;18.50;99.90;;;;;;4938421;29;20501;-82
2023/08/26 01:48:14;;;;;;;10.35;7.32;;;18.50;99.90;;;;;;4929697;29;20035;-82
2023/08/26 01:50:40;;;;;;;7.00;5.80;;;18.50;99.90;;;;;;4934263;29;20047;-79
2023/08/26 01:53:06;;;;;;;8.93;6.95;;;18.50;99.90;;;;;;4933120;29;20047;-79
2023/08/26 01:55:32;;;;;;;8.52;6.55;;;18.50;99.90;;;;;;4952724;28;20040;-80
2023/08/26 01:57:58;;;;;;;11.65;6.70;;;18.50;99.90;;;;;;4926274;29;20493;-81
2023/08/26 02:00:24;;;;;;;8.07;6.05;;;18.40;99.90;;;;;;4933915;29;20078;-81
2023/08/26 02:02:50;;;;;;;9.43;6.07;;;18.40;99.90;;;;;;4935558;29;20492;-79
2023/08/26 02:05:16;;;;;;;10.00;6.45;;;18.40;99.90;;;;;;4918328;29;20265;-79
2023/08/26 02:07:42;;;;;;;10.77;7.20;;;18.40;99.90;;;;;;4935541;29;20032;-80
2023/08/26 02:10:09;;;;;;;9.60;7.25;;;18.40;99.90;;;;;;4929196;29;20076;-81
2023/08/26 02:12:35;;;;;;;9.68;7.57;;;18.40;99.90;;;;;;4934876;29;20516;-81
2023/08/26 02:15:02;;;;;;;10.13;8.02;;;18.50;99.90;;;;;;4955596;28;20028;-79
2023/08/26 02:17:29;;;;;;;13.35;9.07;;;18.50;99.90;;;;;;4936174;29;20400;-82
2023/08/26 02:19:55;;;;;;;10.35;8.10;;;18.50;99.90;;;;;;4937950;29;20114;-81
2023/08/26 02:22:20;;;;;;;10.18;7.30;;;18.40;99.90;;;;;;4949422;29;20095;-82
2023/08/26 02:24:46;;;;;;;10.15;7.60;;;18.40;99.90;;;;;;4928763;29;20032;-81
2023/08/26 02:27:13;;;;;;;11.02;7.82;;;18.40;99.90;;;;;;4931596;29;20032;-83
2023/08/26 02:29:39;;;;;;;10.95;7.57;;;18.30;99.90;;;;;;4942427;29;20508;-80
2023/08/26 02:32:06;;;;;;;8.23;7.25;;;18.30;99.90;;;;;;4933939;29;20035;-82
2023/08/26 02:34:32;;;;;;;9.35;7.68;;;18.30;99.90;;;;;;4915723;29;20090;-81
2023/08/26 02:36:57;;;;;;;9.05;7.30;;;18.30;99.90;;;;;;4919040;29;20129;-80
2023/08/26 02:39:24;;;;;;;12.00;7.85;;;18.30;99.90;;;;;;4930135;29;20126;-80
2023/08/26 02:41:50;;;;;;;11.27;8.07;;;18.30;99.90;;;;;;4932596;29;20054;-82
2023/08/26 02:44:16;;;;;;;11.02;8.60;;;18.30;99.90;;;;;;4927512;29;20035;-82
2023/08/26 02:46:42;;;;;;;13.38;8.95;;;18.30;99.90;;;;;;4918680;29;20027;-81
2023/08/26 02:49:08;;;;;;;10.65;8.32;;;18.40;99.90;;;;;;4921919;29;20748;-83
2023/08/26 02:51:36;;;;;;;15.43;9.30;;;18.40;99.90;;;;;;4927272;29;20051;-80
2023/08/26 02:54:02;;;;;;;10.52;8.43;;;18.40;99.90;;;;;;4930522;29;20040;-81
2023/08/26 02:56:29;;;;;;;10.85;8.73;;;18.40;99.90;;;;;;4939602;29;20040;-81
2023/08/26 02:58:57;;;;;;;13.30;9.77;;;18.40;99.90;;;;;;4906776;29;20066;-80
2023/08/26 03:01:24;;;;;;;12.57;8.73;;;18.40;99.90;;;;;;4916896;29;20102;-81
2023/08/26 03:03:50;;;;;;;11.32;9.23;;;18.40;99.90;;;;;;4932860;29;20036;-81
2023/08/26 03:06:15;;;;;;;14.55;10.40;;;18.40;99.90;;;;;;4928177;29;20027;-81
2023/08/26 03:08:44;;;;;;;13.30;9.95;;;18.30;99.90;;;;;;4912150;29;20383;-84
2023/08/26 03:11:11;;;;;;;14.48;10.00;;;18.20;99.90;;;;;;4922416;29;20051;-81
2023/08/26 03:13:58;;;;;;;14.90;9.05;;;18.20;99.90;;;;;;4944855;29;20051;-82
2023/08/26 03:16:24;;;;;;;11.55;8.77;;;18.20;99.90;;;;;;4924472;29;20111;-86
2023/08/26 03:18:53;;;;;;;14.05;9.25;;;18.20;99.90;;;;;;4949158;28;20576;-85
2023/08/26 03:21:18;;;;;;;13.60;9.00;;;18.20;99.90;;;;;;4934182;29;20083;-82
2023/08/26 03:23:44;;;;;;;11.90;7.85;;;18.20;99.90;;;;;;4931334;29;20024;-81
2023/08/26 03:26:10;;;;;;;10.90;7.85;;;18.20;99.90;;;;;;4952010;28;20035;-82
2023/08/26 03:29:12;;;;;;;13.20;9.32;;;18.20;99.90;;;;;;4941830;29;20055;-79
2023/08/26 03:32:28;;;;;;;12.52;9.07;;;18.20;99.90;;;;;;4935660;29;20055;-79
2023/08/26 03:34:53;;;;;;;15.38;9.20;;;18.30;99.90;;;;;;4957043;28;20071;-82
2023/08/26 03:37:19;;;;;;;12.60;9.00;;;18.30;99.90;;;;;;4934724;29;20078;-82
2023/08/26 03:39:46;;;;;;;13.02;9.10;;;18.30;99.90;;;;;;4934485;29;20461;-80
2023/08/26 03:42:12;;;;;;;19.33;9.80;;;18.30;99.90;;;;;;4941003;28;20063;-81
2023/08/26 03:44:38;;;;;;;11.95;8.45;;;18.30;99.90;;;;;;4928389;29;20074;-83
2023/08/26 03:47:03;;;;;;;12.00;9.30;;;18.40;99.90;;;;;;4910349;29;20064;-82
2023/08/26 03:49:30;;;;;;;14.38;8.75;;;18.40;99.90;;;;;;4927163;29;20028;-82
2023/08/26 03:51:56;;;;;;;10.88;8.55;;;18.40;99.90;;;;;;4952261;28;20035;-82
2023/08/26 03:54:22;;;;;;;13.40;8.52;;;18.40;99.90;;;;;;4935843;29;20059;-83
2023/08/26 03:57:06;;;;;;;10.27;8.10;;;18.30;99.90;;;;;;4939566;29;20054;-81
2023/08/26 03:59:32;;;;;;;13.00;9.07;;;18.30;99.90;;;;;;4932476;29;20397;-83
2023/08/26 04:02:16;;;;;;;12.55;7.90;;;18.30;99.90;;;;;;4932412;29;20067;-83
2023/08/26 04:04:42;;;;;;;12.48;8.13;;;18.30;99.90;;;;;;4941481;29;20032;-85
2023/08/26 04:07:08;;;;;;;14.15;7.68;;;18.30;99.90;;;;;;4944444;28;20028;-83
2023/08/26 04:09:35;;;;;;;10.20;8.63;;;18.20;99.90;;;;;;4916299;29;20039;-82
2023/08/26 04:12:01;;;;;;;8.82;7.60;;;18.20;99.90;;;;;;4932230;29;20036;-81
2023/08/26 04:14:27;;;;;;;10.95;7.85;;;18.20;99.90;;;;;;4938849;28;20052;-81
2023/08/26 04:16:53;;;;;;;9.43;6.90;;;18.20;99.90;;;;;;4941845;29;20378;-84
2023/08/26 04:19:18;;;;;;;14.82;7.68;;;18.20;99.90;;;;;;4927567;29;20082;-84
2023/08/26 04:21:44;;;;;;;12.32;7.72;;;18.20;99.90;;;;;;4938022;29;20032;-86
2023/08/26 04:24:10;;;;;;;9.18;7.70;;;18.20;99.90;;;;;;4932247;29;20031;-84
2023/08/26 04:26:39;;;;;;;11.85;7.95;;;18.20;99.90;;;;;;4932771;29;20032;-81
2023/08/26 04:29:05;;;;;;;10.80;7.30;;;18.10;99.90;;;;;;4937239;29;20032;-81
2023/08/26 04:31:31;;;;;;;11.77;7.32;;;18.10;99.90;;;;;;4950090;28;20424;-82
2023/08/26 04:33:57;;;;;;;9.45;6.88;;;18.10;99.90;;;;;;4938328;29;20070;-82
2023/08/26 04:36:23;;;;;;;8.68;6.88;;;18.10;99.90;;;;;;4931884;29;20492;-82
2023/08/26 04:38:48;;;;;;;9.57;6.88;;;18.10;99.90;;;;;;4940645;29;20134;-81
2023/08/26 04:41:14;;;;;;;13.05;6.70;;;18.10;99.90;;;;;;4928682;29;20032;-83
2023/08/26 04:43:40;;;;;;;9.13;6.22;;;18.00;99.90;;;;;;4922805;29;20025;-83
2023/08/26 04:46:06;;;;;;;9.35;6.80;;;18.00;99.90;;;;;;4907121;29;20039;-82
2023/08/26 04:48:33;;;;;;;10.55;6.85;;;18.00;99.90;;;;;;4927977;29;20134;-81
2023/08/26 04:50:59;;;;;;;8.98;6.63;;;18.00;99.90;;;;;;4923599;29;20043;-82
2023/08/26 04:53:25;;;;;;;8.43;6.70;;;18.00;99.90;;;;;;4933970;29;20036;-83
2023/08/26 04:55:51;;;;;;;9.55;6.47;;;17.90;99.90;;;;;;4932578;29;20063;-83
2023/08/26 04:58:17;;;;;;;9.43;5.85;;;17.90;99.90;;;;;;4930143;29;20036;-81
2023/08/26 05:00:45;;;;;;;7.75;5.88;;;17.90;99.90;;;;;;4918210;29;20353;-83
2023/08/26 05:03:11;;;;;;;11.85;6.00;;;17.90;99.90;;;;;;4926839;29;20020;-81
2023/08/26 05:05:41;;;;;;;8.80;6.50;;;17.90;99.90;;;;;;4931278;28;20051;-82
2023/08/26 05:08:08;;;;;;;9.88;5.93;;;18.00;99.90;;;;;;4916968;29;20032;-83
2023/08/26 05:10:36;;;;;;;6.57;5.85;;;17.90;99.90;;;;;;4927353;29;20469;-81
2023/08/26 05:13:03;;;;;;;8.68;5.68;;;17.90;99.90;;;;;;4923244;29;20028;-80
2023/08/26 05:15:29;;;;;;;11.85;6.43;;;17.90;99.90;;;;;;4930373;29;20040;-80
2023/08/26 05:17:55;;;;;;;7.78;6.53;;;17.90;99.90;;;;;;4932437;29;20059;-80
2023/08/26 05:20:21;;;;;;;7.68;5.80;;;17.90;99.90;;;;;;4931315;29;20042;-81
2023/08/26 05:22:46;;;;;;;6.88;5.75;;;17.90;99.90;;;;;;4929940;29;20036;-79
2023/08/26 05:25:12;;;;;;;6.78;5.75;;;17.90;99.90;;;;;;4929777;29;20035;-82
2023/08/26 05:27:39;;;;;;;9.98;5.47;;;17.90;99.90;;;;;;4926274;29;20032;-79
2023/08/26 05:30:05;;;;;;;7.38;5.85;;;17.90;99.90;;;;;;4930713;29;20559;-82
2023/08/26 05:32:38;;;;;;;8.00;5.57;;;17.90;99.90;;;;;;4939676;29;20068;-80
2023/08/26 05:35:04;;;;;;;7.80;5.57;;;18.00;99.90;;;;;;4933225;29;20040;-83
2023/08/26 05:37:31;;;;;;;8.25;6.10;;;18.10;99.90;;;;;;4934297;29;20034;-82
2023/08/26 05:39:57;;;;;;;8.00;6.00;;;18.10;99.90;;;;;;4940908;29;20040;-81
2023/08/26 05:42:22;;;;;;;7.85;5.70;;;18.10;99.90;;;;;;4928153;29;20055;-81
2023/08/26 05:44:48;;;;;;;8.23;5.35;;;18.10;99.90;;;;;;4931468;29;20056;-83
2023/08/26 05:47:14;;;;;;;7.13;5.10;;;18.10;99.90;;;;;;4934913;29;20479;-81
2023/08/26 05:49:40;;;;;;;8.75;5.30;;;18.10;99.90;;;;;;4931644;29;20036;-82
2023/08/26 05:52:06;;;;;;;6.20;5.60;;;18.20;99.90;;;;;;4946257;28;20036;-83
2023/08/26 05:54:32;;;;;;;9.98;5.70;;;18.20;99.90;;;;;;4931002;29;20059;-83
2023/08/26 05:56:57;;;;;;;6.30;5.63;;;18.20;99.90;;;;;;4930204;29;20382;-79
2023/08/26 05:59:23;;;;;;;9.23;5.90;;;18.20;99.90;;;;;;4922933;29;20069;-81
2023/08/26 06:01:49;;;;;;;7.30;5.72;;;18.30;99.90;;;;;;4922408;29;20104;-79
2023/08/26 06:04:15;;;;;;;6.03;5.40;;;18.30;99.90;;;;;;4924850;29;20561;-82
2023/08/26 06:06:41;;;;;;;7.10;5.20;;;18.30;99.90;;;;;;4909093;29;20044;-81
2023/08/26 06:09:09;;;;;;;6.15;5.13;;;18.40;99.90;;;;;;4940143;29;20038;-82
2023/08/26 06:11:35;;;;;;;8.90;5.53;;;18.40;99.90;;;;;;4926179;29;20076;-81
2023/08/26 06:14:03;;;;;;;9.18;5.70;;;18.40;99.90;;;;;;4937833;28;20055;-81
2023/08/26 06:16:29;;;;;;;9.10;5.43;;;18.40;99.90;;;;;;4946631;28;20222;-82
2023/08/26 06:18:54;;;;;;;9.55;5.45;;;18.50;99.90;;;;;;4926527;29;20023;-81
2023/08/26 06:21:20;;;;;;;9.70;5.40;;;18.50;99.90;;;;;;4929728;29;20404;-82
2023/08/26 06:23:46;;;;;;;8.00;5.30;;;18.50;99.90;;;;;;4921135;29;20062;-81
2023/08/26 06:26:12;;;;;;;8.50;5.80;;;18.50;99.90;;;;;;4939735;28;20778;-80
2023/08/26 06:28:39;;;;;;;8.25;5.97;;;18.50;99.90;;;;;;4941784;29;20028;-85
2023/08/26 06:31:08;;;;;;;7.38;6.22;;;18.50;99.90;;;;;;4929280;29;20404;-82
2023/08/26 06:33:39;;;;;;;8.52;6.50;;;18.50;99.90;;;;;;4931261;29;20560;-81
2023/08/26 06:36:07;;;;;;;6.65;5.72;;;18.50;99.90;;;;;;4933862;29;20456;-82
2023/08/26 06:38:33;;;;;;;12.27;6.65;;;18.60;99.90;;;;;;4931099;29;20182;-80
2023/08/26 06:40:59;;;;;;;7.40;6.65;;;18.60;99.90;;;;;;4924664;29;20038;-82
2023/08/26 06:43:43;;;;;;;7.00;6.30;;;18.80;99.90;;;;;;4931972;29;20039;-81
2023/08/26 06:46:22;;;;;;;8.48;6.63;;;18.90;99.90;;;;;;4937768;29;20648;-82
2023/08/26 06:48:48;;;;;;;7.78;6.55;;;19.10;99.90;;;;;;4919964;29;20752;-80
2023/08/26 06:51:13;;;;;;;8.73;6.50;;;19.10;99.90;;;;;;4916152;29;20069;-83
2023/08/26 06:53:39;;;;;;;8.70;6.60;;;19.10;99.90;;;;;;4940775;29;20028;-82
2023/08/26 06:56:05;;;;;;;8.32;6.80;;;19.10;99.90;;;;;;4936062;29;20042;-83
2023/08/26 06:58:31;;;;;;;10.85;6.85;;;19.10;99.90;;;;;;4937098;29;20036;-82
2023/08/26 07:00:57;;;;;;;8.73;7.05;;;19.20;99.90;;;;;;4934115;29;20083;-82
2023/08/26 07:03:24;;;;;;;11.30;8.32;;;19.30;99.90;;;;;;4934226;29;20027;-81
2023/08/26 07:05:50;;;;;;;9.80;7.53;;;19.30;99.90;;;;;;4930880;29;20607;-81
2023/08/26 07:08:17;;;;;;;9.07;7.30;;;19.30;99.90;;;;;;4936226;29;20032;-81
2023/08/26 07:10:47;;;;;;;11.02;7.78;;;19.30;99.90;;;;;;4934224;29;20485;-83
2023/08/26 07:13:13;;;;;;;12.68;7.80;;;19.30;99.90;;;;;;4933976;29;20024;-81
2023/08/26 07:15:39;;;;;;;9.07;8.15;;;19.40;99.90;;;;;;4925262;29;20028;-83
2023/08/26 07:18:05;;;;;;;9.18;8.27;;;19.40;99.90;;;;;;4931778;29;20050;-81
2023/08/26 07:20:31;;;;;;;10.93;9.05;;;19.50;99.90;;;;;;4923839;29;21395;-83
2023/08/26 07:22:57;;;;;;;10.75;7.97;;;19.50;99.90;;;;;;4926331;29;20151;-82
2023/08/26 07:25:23;;;;;;;9.98;7.50;;;19.60;99.90;;;;;;4936790;29;20533;-82
2023/08/26 07:27:49;;;;;;;11.20;8.48;;;19.60;99.90;;;;;;4934960;29;20040;-80
2023/08/26 07:30:15;;;;;;;12.38;7.95;;;19.60;99.90;;;;;;4926843;29;20036;-81
2023/08/26 07:32:41;;;;;;;10.65;8.25;;;19.80;99.90;;;;;;4918453;29;20043;-82
2023/08/26 07:35:09;;;;;;;8.75;7.70;;;19.90;99.90;;;;;;4936607;29;20127;-81
2023/08/26 07:37:36;;;;;;;12.45;8.45;;;20.00;99.90;;;;;;4939065;29;20032;-83
2023/08/26 07:40:05;;;;;;;14.60;9.45;;;20.10;99.90;;;;;;4929310;29;20054;-81
2023/08/26 07:42:34;;;;;;;12.45;9.45;;;20.10;99.90;;;;;;4933161;29;20135;-81
2023/08/26 07:44:59;;;;;;;13.73;8.88;;;20.10;99.90;;;;;;4932069;29;20024;-82
2023/08/26 07:47:26;;;;;;;11.73;8.85;;;20.10;99.90;;;;;;4932994;29;20735;-81
2023/08/26 07:49:51;;;;;;;11.60;8.40;;;20.20;99.90;;;;;;4937076;29;20051;-82
2023/08/26 07:52:17;;;;;;;14.95;9.32;;;20.30;99.90;;;;;;4929232;29;20086;-83
2023/08/26 07:54:43;;;;;;;9.65;8.63;;;20.50;99.90;;;;;;4914333;28;20560;-82
2023/08/26 07:57:08;;;;;;;13.48;11.10;;;20.60;99.90;;;;;;4932365;29;20040;-81
2023/08/26 07:59:34;;;;;;;14.75;9.50;;;20.90;99.90;;;;;;4938550;29;20036;-83
2023/08/26 08:02:00;;;;;;;9.30;6.95;;;21.20;99.90;;;;;;4918632;29;20028;-84
2023/08/26 08:04:26;;;;;;;9.02;7.05;;;21.20;99.90;;;;;;4936304;29;20664;-85
2023/08/26 08:06:52;;;;;;;7.53;6.80;;;21.20;99.90;;;;;;4936387;29;20094;-82
2023/08/26 08:09:17;;;;;;;9.43;6.90;;;21.20;99.90;;;;;;4937485;29;20035;-82
2023/08/26 08:11:44;;;;;;;8.20;6.82;;;21.00;99.90;;;;;;4937825;29;20039;-79
2023/08/26 08:14:48;;;;;;;7.47;6.05;;;20.90;99.90;;;;;;4945076;29;20071;-83
2023/08/26 08:17:14;;;;;;;9.25;6.53;;;20.70;99.90;;;;;;4930134;29;20062;-83
2023/08/26 08:19:45;;;;;;;10.90;7.72;;;20.70;99.90;;;;;;4933461;29;20468;-82
2023/08/26 08:22:12;;;;;;;10.57;6.97;;;20.70;99.90;;;;;;4917766;29;20545;-84
2023/08/26 08:24:38;;;;;;;7.75;7.05;;;20.60;99.90;;;;;;4937734;29;20496;-82
2023/08/26 08:27:04;;;;;;;12.93;6.55;;;20.70;99.90;;;;;;4934401;29;20024;-80
2023/08/26 08:29:30;;;;;;;13.00;7.00;;;20.50;99.90;;;;;;4927782;29;20038;-80
2023/08/26 08:31:55;;;;;;;9.88;7.22;;;20.50;99.90;;;;;;4929756;29;20120;-83
2023/08/26 08:34:21;;;;;;;9.73;6.20;;;20.50;99.90;;;;;;4936765;29;20537;-80
2023/08/26 08:36:47;;;;;;;9.65;6.80;;;20.50;99.90;;;;;;4916135;29;20043;-82
2023/08/26 08:39:13;;;;;;;8.02;6.05;;;20.60;99.90;;;;;;4933840;29;20536;-82
2023/08/26 08:41:41;;;;;;;8.80;5.60;;;20.60;99.90;;;;;;4934454;29;20043;-84
2023/08/26 08:44:14;;;;;;;10.60;5.80;;;20.60;99.90;;;;;;4934925;29;20182;-84
2023/08/26 08:46:41;;;;;;;6.65;5.10;;;20.60;99.90;;;;;;4935158;29;20496;-83
2023/08/26 08:49:07;;;;;;;8.95;6.82;;;20.60;99.90;;;;;;4930417;29;20106;-82
2023/08/26 08:51:34;;;;;;;7.15;6.00;;;20.60;99.90;;;;;;4932369;29;20039;-82
2023/08/26 08:54:03;;;;;;;7.90;5.63;;;20.60;99.90;;;;;;4924969;29;20032;-82
2023/08/26 08:56:32;;;;;;;8.73;5.80;;;20.60;99.90;;;;;;4931985;29;20031;-82
2023/08/26 08:58:59;;;;;;;8.88;4.72;;;20.60;99.90;;;;;;4934801;29;20059;-81
2023/08/26 09:01:25;;;;;;;9.57;5.32;;;20.50;99.90;;;;;;4951374;28;20660;-82
2023/08/26 09:03:51;;;;;;;6.53;4.90;;;20.50;99.90;;;;;;4932475;29;20020;-81
2023/08/26 09:06:19;;;;;;;9.57;4.57;;;20.50;99.90;;;;;;4935982;29;20560;-82
2023/08/26 09:08:46;;;;;;;8.38;5.03;;;20.60;99.90;;;;;;4931164;29;20035;-82
2023/08/26 09:11:22;;;;;;;12.10;4.97;;;20.50;99.90;;;;;;4929272;29;20024;-84
2023/08/26 09:14:09;;;;;;;10.25;5.40;;;20.60;99.90;;;;;;4919102;29;20393;-82
2023/08/26 09:16:40;;;;;;;8.90;5.50;;;20.50;99.90;;;;;;4926556;29;20036;-82
2023/08/26 09:19:13;;;;;;;7.65;5.43;;;20.50;99.90;;;;;;4931453;29;20040;-82
2023/08/26 09:21:43;;;;;;;9.45;6.00;;;20.50;99.90;;;;;;4927859;29;20493;-83
2023/08/26 09:24:17;;;;;;;7.38;5.38;;;20.60;99.90;;;;;;4929315;29;20024;-81
2023/08/26 09:26:47;;;;;;;7.72;5.65;;;20.70;99.90;;;;;;4929230;29;20440;-82
2023/08/26 09:29:18;;;;;;;9.45;5.05;;;20.80;99.90;;;;;;4931094;29;20046;-81
2023/08/26 09:31:52;;;;;;;7.30;4.88;;;20.90;99.90;;;;;;4933543;29;20031;-84
2023/08/26 09:34:28;;;;;;;7.57;4.85;;;20.90;99.90;;;;;;4937386;29;20102;-81
2023/08/26 09:36:53;;;;;;;8.57;5.32;;;20.80;99.90;;;;;;4928741;29;20042;-82
2023/08/26 09:39:21;;;;;;;8.82;4.45;;;20.70;99.90;;;;;;4917029;29;20043;-81
2023/08/26 09:41:47;;;;;;;9.88;4.45;;;20.70;99.90;;;;;;4937978;29;20035;-81
2023/08/26 09:44:18;;;;;;;9.30;4.22;;;20.70;99.90;;;;;;4932201;29;20036;-81
2023/08/26 09:46:44;;;;;;;6.90;4.32;;;20.60;99.90;;;;;;4909054;29;20028;-81
2023/08/26 09:49:15;;;;;;;6.10;4.65;;;20.70;99.90;;;;;;4927547;29;20024;-79
2023/08/26 09:51:49;;;;;;;10.23;4.75;;;20.80;99.90;;;;;;4927723;29;20106;-82
2023/08/26 09:54:18;;;;;;;8.05;5.28;;;20.90;99.90;;;;;;4919505;29;20074;-81
2023/08/26 09:56:46;;;;;;;7.70;5.40;;;20.90;99.90;;;;;;4931871;29;20044;-82
2023/08/26 09:59:12;;;;;;;8.98;4.97;;;21.00;99.90;;;;;;4929762;29;20505;-80
2023/08/26 10:01:39;;;;;;;6.30;5.05;;;21.10;99.90;;;;;;4933495;29;20068;-81
2023/08/26 10:04:08;;;;;;;7.95;5.45;;;21.10;99.90;;;;;;4941017;29;20112;-80
2023/08/26 10:06:46;;;;;;;8.38;5.25;;;21.10;99.90;;;;;;4934068;28;20142;-81
2023/08/26 10:09:34;;;;;;;5.97;4.95;;;21.10;99.90;;;;;;4937758;29;20055;-81
2023/08/26 10:12:04;;;;;;;6.00;3.83;;;21.10;99.90;;;;;;4937603;29;20061;-82
2023/08/26 10:14:33;;;;;;;7.88;4.68;;;21.20;99.90;;;;;;4942391;29;20031;-81
2023/08/26 10:17:07;;;;;;;8.68;4.85;;;21.00;99.90;;;;;;4933660;29;20095;-80
2023/08/26 10:19:34;;;;;;;6.20;5.20;;;21.10;99.90;;;;;;4947377;28;20081;-82
2023/08/26 10:22:01;;;;;;;10.23;4.97;;;21.30;99.90;;;;;;4927406;29;20131;-82
2023/08/26 10:24:28;;;;;;;9.02;4.97;;;21.30;99.90;;;;;;4930088;29;20050;-82
2023/08/26 10:26:54;;;;;;;9.32;4.68;;;21.40;99.90;;;;;;4915578;29;20039;-81
2023/08/26 10:29:20;;;;;;;8.70;4.72;;;21.30;99.90;;;;;;4918221;29;20063;-81
2023/08/26 10:31:46;;;;;;;5.38;4.03;;;21.30;99.90;;;;;;4930950;29;20055;-80
2023/08/26 10:34:15;;;;;;;8.50;4.88;;;21.30;99.90;;;;;;4929354;29;20593;-80
2023/08/26 10:36:46;;;;;;;6.80;5.05;;;21.20;99.90;;;;;;4925684;29;20038;-81
2023/08/26 10:39:18;;;;;;;11.82;5.88;;;21.20;99.90;;;;;;4935029;29;20046;-80
2023/08/26 10:42:13;;;;;;;5.60;4.30;;;21.20;99.90;;;;;;4930632;29;20036;-80
2023/08/26 10:48:20;;;;;;;7.63;4.43;;;21.30;99.90;;;;;;4903971;29;20058;-80
2023/08/26 10:51:06;;;;;;;8.65;4.22;;;21.60;99.90;;;;;;4918152;29;20091;-80
2023/08/26 10:53:43;;;;;;;8.75;4.35;;;21.80;99.90;;;;;;4928295;29;20048;-80
2023/08/26 10:56:13;;;;;;;6.03;4.38;;;21.80;99.90;;;;;;4918456;29;20610;-79
2023/08/26 10:58:44;;;;;;;7.03;4.88;;;21.70;99.90;;;;;;4916665;29;20071;-81
2023/08/26 11:01:11;;;;;;;7.45;4.28;;;21.80;99.90;;;;;;4924454;29;20121;-81
2023/08/26 11:03:37;;;;;;;8.20;4.90;;;21.80;99.90;;;;;;4928802;29;20036;-81
2023/08/26 11:06:05;;;;;;;7.38;4.00;;;21.80;99.90;;;;;;4927974;29;20039;-79
2023/08/26 11:08:31;;;;;;;8.95;4.38;;;21.90;99.90;;;;;;4930489;29;20059;-81
2023/08/26 11:10:58;;;;;;;7.15;3.38;;;22.00;99.90;;;;;;4930591;29;20114;-81
2023/08/26 11:13:23;;;;;;;6.15;3.72;;;22.10;99.90;;;;;;4927116;29;20437;-80
2023/08/26 11:15:50;;;;;;;6.40;4.32;;;22.10;99.90;;;;;;4940495;28;20095;-79
2023/08/26 11:18:17;;;;;;;6.43;3.83;;;22.20;99.90;;;;;;4899919;29;20036;-81
2023/08/26 11:20:44;;;;;;;7.07;3.85;;;22.40;99.90;;;;;;4927078;29;20023;-82
2023/08/26 11:23:10;;;;;;;6.20;4.00;;;22.40;99.90;;;;;;4915036;29;20114;-82
2023/08/26 11:25:37;;;;;;;6.28;3.88;;;22.50;99.90;;;;;;4930121;29;20028;-81
2023/08/26 11:28:04;;;;;;;8.45;3.75;;;22.50;99.90;;;;;;4923310;29;20020;-81
2023/08/26 11:30:30;;;;;;;7.25;3.45;;;22.50;99.90;;;;;;4917748;29;20044;-82
2023/08/26 11:32:59;;;;;;;7.63;3.50;;;22.60;99.90;;;;;;4929796;29;20020;-81
2023/08/26 11:35:25;;;;;;;7.30;3.92;;;22.60;99.90;;;;;;4926376;29;20032;-82
2023/08/26 11:37:51;;;;;;;6.68;3.65;;;22.70;99.90;;;;;;4933283;29;20046;-80
2023/08/26 11:40:17;;;;;;;6.38;3.92;;;22.70;99.90;;;;;;4926597;29;20039;-80
2023/08/26 11:42:44;;;;;;;6.18;3.30;;;22.80;99.90;;;;;;4895733;29;20044;-81
2023/08/26 11:45:11;;;;;;;8.60;3.00;;;22.90;99.90;;;;;;4922410;29;20031;-80
2023/08/26 11:47:37;;;;;;;5.93;3.65;;;23.00;99.90;;;;;;4928323;29;20588;-80
2023/08/26 11:50:04;;;;;;;8.38;3.45;;;23.10;99.90;;;;;;4925310;29;20033;-79
2023/08/26 11:52:34;;;;;;;4.80;3.25;;;23.10;99.90;;;;;;4925182;29;20044;-80
2023/08/26 11:55:08;;;;;;;5.20;3.45;;;23.20;99.90;;;;;;4936875;28;20467;-79
2023/08/26 11:57:39;;;;;;;10.25;4.28;;;23.40;99.90;;;;;;4930186;29;20058;-80
2023/08/26 12:00:13;;;;;;;7.22;4.05;;;23.60;99.90;;;;;;4936800;28;20058;-80
2023/08/26 12:02:44;;;;;;;8.52;4.15;;;23.70;99.90;;;;;;4940574;29;20062;-80
2023/08/26 12:05:11;;;;;;;5.10;3.88;;;23.70;99.90;;;;;;4932789;28;20570;-82
2023/08/26 12:07:46;;;;;;;5.80;3.33;;;23.80;99.90;;;;;;4934203;29;20031;-79
2023/08/26 12:10:14;;;;;;;7.45;3.13;;;23.80;99.90;;;;;;4931142;29;20078;-80
2023/08/26 12:12:41;;;;;;;5.97;3.20;;;24.00;99.90;;;;;;4934656;29;20063;-80
2023/08/26 12:15:17;;;;;;;8.60;3.33;;;24.20;99.90;;;;;;4933570;29;20381;-79
2023/08/26 12:17:51;;;;;;;5.80;2.92;;;24.40;99.90;;;;;;4920750;29;20371;-80
2023/08/26 12:20:25;;;;;;;6.80;2.60;;;24.50;99.90;;;;;;4929194;29;20031;-82
2023/08/26 12:22:52;;;;;;;4.38;2.92;;;24.60;99.90;;;;;;4932481;29;20044;-82
2023/08/26 12:25:32;;;;;;;7.30;3.97;;;24.70;99.90;;;;;;4923642;29;20043;-80
2023/08/26 12:28:08;;;;;;;8.02;3.30;;;24.80;99.90;;;;;;4933244;29;20055;-81
2023/08/26 12:30:36;;;;;;;6.07;3.40;;;24.80;99.90;;;;;;4924017;29;20051;-82
2023/08/26 12:33:03;;;;;;;10.00;3.00;;;24.80;99.90;;;;;;4933509;29;20035;-80
2023/08/26 12:35:29;;;;;;;5.03;2.85;;;24.70;99.90;;;;;;4932477;29;20067;-79
2023/08/26 12:37:55;;;;;;;7.63;2.97;;;24.70;99.90;;;;;;4925403;29;20516;-81
2023/08/26 12:40:21;;;;;;;8.63;3.30;;;24.50;99.90;;;;;;4928194;29;20088;-80
2023/08/26 12:42:46;;;;;;;4.75;3.17;;;24.50;99.90;;;;;;4931181;29;20576;-80
2023/08/26 12:45:12;;;;;;;6.30;2.95;;;24.40;99.90;;;;;;4927548;29;20160;-80
2023/08/26 12:47:38;;;;;;;6.40;3.00;;;24.30;99.90;;;;;;4926976;29;20023;-81
2023/08/26 12:50:05;;;;;;;5.95;2.75;;;24.30;99.90;;;;;;4922929;29;20020;-79
2023/08/26 12:52:30;;;;;;;7.55;3.03;;;24.20;99.90;;;;;;4915774;29;20044;-79